createdAt,value
2019-03-04T00:01:14.772Z,3.00
2019-03-04T00:03:43.031Z,2.60
2019-03-04T00:06:11.311Z,2.63
2019-03-04T00:08:39.569Z,2.53
2019-03-04T00:11:07.973Z,2.37
2019-03-04T00:13:36.717Z,3.00
2019-03-04T00:16:05.052Z,2.67
2019-03-04T00:18:33.374Z,2.07
2019-03-04T00:21:01.668Z,2.10
2019-03-04T00:23:29.915Z,2.33
2019-03-04T00:25:58.204Z,2.10
2019-03-04T00:28:26.459Z,2.50
2019-03-04T00:30:54.813Z,2.10
2019-03-04T00:33:23.064Z,2.40
2019-03-04T00:35:51.341Z,2.40
2019-03-04T00:38:20.906Z,2.23
2019-03-04T00:40:49.823Z,2.97
2019-03-04T00:43:18.095Z,2.50
2019-03-04T00:45:46.825Z,2.53
2019-03-04T00:48:15.096Z,2.67
2019-03-04T00:50:43.352Z,2.60
2019-03-04T00:53:11.608Z,2.20
2019-03-04T00:55:39.882Z,2.80
2019-03-04T00:58:08.161Z,3.03
2019-03-04T01:00:36.920Z,2.37
2019-03-04T01:03:05.867Z,2.37
2019-03-04T01:05:34.113Z,2.33
2019-03-04T01:08:02.375Z,2.50
2019-03-04T01:10:30.646Z,2.27
2019-03-04T01:12:58.915Z,2.27
2019-03-04T01:15:27.187Z,2.57
2019-03-04T01:17:55.448Z,2.60
2019-03-04T01:20:23.747Z,2.40
2019-03-04T01:22:52.019Z,2.40
2019-03-04T01:25:20.770Z,2.40
2019-03-04T01:27:49.093Z,2.70
2019-03-04T01:30:19.960Z,2.77
2019-03-04T01:32:49.155Z,2.53
2019-03-04T01:35:17.482Z,2.40
2019-03-04T01:37:45.746Z,2.07
2019-03-04T01:40:19.512Z,2.30
2019-03-04T01:42:47.789Z,2.40
2019-03-04T01:45:17.481Z,2.37
2019-03-04T01:47:45.750Z,2.20
2019-03-04T01:50:16.649Z,2.50
2019-03-04T01:52:45.453Z,2.80
2019-03-04T01:55:15.738Z,2.57
2019-03-04T01:57:44.000Z,2.27
2019-03-04T02:00:15.461Z,2.40
2019-03-04T02:02:43.876Z,2.60
2019-03-04T02:05:12.211Z,3.17
2019-03-04T02:07:40.554Z,2.70
2019-03-04T02:10:14.289Z,2.53
2019-03-04T02:12:44.567Z,2.70
2019-03-04T02:15:14.677Z,3.00
2019-03-04T02:17:43.013Z,2.80
2019-03-04T02:20:16.994Z,2.80
2019-03-04T02:22:45.792Z,2.43
2019-03-04T02:25:16.516Z,2.90
2019-03-04T02:27:50.185Z,2.57
2019-03-04T02:30:24.348Z,2.40
2019-03-04T02:32:52.617Z,2.87
2019-03-04T02:35:20.959Z,2.50
2019-03-04T02:37:49.204Z,2.27
2019-03-04T02:40:17.506Z,2.93
2019-03-04T02:42:45.731Z,3.13
2019-03-04T02:45:16.937Z,2.70
2019-03-04T02:47:45.201Z,2.50
2019-03-04T02:50:13.622Z,2.30
2019-03-04T02:52:41.892Z,2.87
2019-03-04T02:55:10.231Z,2.40
2019-03-04T02:57:38.549Z,2.30
2019-03-04T03:00:09.996Z,2.20
2019-03-04T03:02:38.280Z,2.43
2019-03-04T03:05:07.977Z,2.57
2019-03-04T03:07:36.279Z,2.87
2019-03-04T03:10:07.590Z,2.73
2019-03-04T03:12:35.850Z,2.70
2019-03-04T03:15:11.777Z,2.70
2019-03-04T03:17:40.137Z,2.47
2019-03-04T03:20:10.930Z,2.53
2019-03-04T03:22:39.171Z,2.77
2019-03-04T03:25:14.882Z,2.20
2019-03-04T03:27:43.583Z,2.50
2019-03-04T03:30:20.355Z,2.30
2019-03-04T03:32:48.624Z,2.70
2019-03-04T03:35:16.861Z,2.77
2019-03-04T03:37:45.179Z,2.67
2019-03-04T03:40:18.038Z,2.60
2019-03-04T03:42:46.323Z,2.53
2019-03-04T03:45:15.129Z,2.30
2019-03-04T03:47:43.377Z,2.40
2019-03-04T03:50:14.233Z,2.73
2019-03-04T03:52:42.510Z,2.37
2019-03-04T03:55:12.306Z,2.10
2019-03-04T03:57:40.553Z,2.20
2019-03-04T04:00:17.820Z,2.17
2019-03-04T04:02:46.078Z,2.17
2019-03-04T04:05:14.432Z,1.97
2019-03-04T04:07:42.793Z,2.60
2019-03-04T04:10:13.188Z,2.20
2019-03-04T04:12:41.453Z,2.17
2019-03-04T04:15:11.940Z,2.37
2019-03-04T04:17:40.225Z,2.00
2019-03-04T04:20:09.806Z,2.43
2019-03-04T04:22:38.089Z,2.30
2019-03-04T04:25:07.828Z,2.10
2019-03-04T04:27:36.087Z,3.00
2019-03-04T04:30:14.697Z,2.10
2019-03-04T04:32:42.993Z,2.37
2019-03-04T04:35:11.324Z,2.70
2019-03-04T04:37:39.597Z,2.40
2019-03-04T04:40:10.204Z,2.73
2019-03-04T04:42:38.452Z,2.70
2019-03-04T04:45:08.161Z,2.60
2019-03-04T04:47:37.179Z,2.60
2019-03-04T04:50:08.869Z,2.60
2019-03-04T04:52:37.141Z,2.30
2019-03-04T04:55:06.466Z,2.30
2019-03-04T04:57:34.739Z,2.10
2019-03-04T05:00:02.989Z,2.27
2019-03-04T05:02:31.236Z,2.60
2019-03-04T05:04:59.577Z,2.93
2019-03-04T05:07:27.837Z,2.20
2019-03-04T05:09:56.112Z,2.30
2019-03-04T05:12:24.381Z,2.20
2019-03-04T05:14:52.649Z,2.60
2019-03-04T05:17:20.908Z,2.33
2019-03-04T05:19:49.175Z,2.40
2019-03-04T05:22:17.452Z,2.93
2019-03-04T05:24:45.720Z,2.07
2019-03-04T05:27:13.976Z,2.30
2019-03-04T05:29:42.388Z,2.30
2019-03-04T05:32:10.591Z,2.40
2019-03-04T05:34:38.864Z,2.50
2019-03-04T05:37:07.177Z,2.67
2019-03-04T05:39:35.393Z,2.93
2019-03-04T05:42:03.675Z,2.47
2019-03-04T05:44:31.925Z,2.50
2019-03-04T05:47:00.197Z,2.60
2019-03-04T05:49:28.451Z,2.30
2019-03-04T05:51:56.725Z,2.13
2019-03-04T05:54:25.021Z,2.37
2019-03-04T05:56:53.271Z,2.33
2019-03-04T05:59:21.538Z,2.40
2019-03-04T06:01:52.982Z,2.70
2019-03-04T06:04:21.266Z,2.17
2019-03-04T06:06:56.768Z,2.60
2019-03-04T06:09:25.041Z,3.00
2019-03-04T06:11:53.304Z,2.80
2019-03-04T06:14:21.581Z,2.60
2019-03-04T06:16:49.826Z,2.30
2019-03-04T06:19:18.088Z,2.90
2019-03-04T06:21:48.432Z,2.33
2019-03-04T06:24:16.700Z,2.57
2019-03-04T06:26:44.960Z,2.40
2019-03-04T06:29:13.216Z,2.73
2019-03-04T06:31:41.482Z,2.90
2019-03-04T06:34:09.769Z,2.53
2019-03-04T06:36:38.052Z,2.23
2019-03-04T06:39:06.915Z,2.80
2019-03-04T06:41:35.184Z,1.80
2019-03-04T06:44:03.457Z,3.80
2019-03-04T06:46:31.745Z,2.80
2019-03-04T06:49:00.009Z,2.70
2019-03-04T06:51:34.110Z,2.77
2019-03-04T06:54:11.433Z,2.70
2019-03-04T06:56:42.865Z,2.87
2019-03-04T06:59:23.450Z,3.00
2019-03-04T07:02:06.936Z,2.10
2019-03-04T07:04:47.436Z,3.07
2019-03-04T07:07:15.688Z,2.60
2019-03-04T07:09:44.216Z,2.03
2019-03-04T07:12:12.478Z,1.73
2019-03-04T07:14:40.749Z,1.60
2019-03-04T07:17:09.236Z,1.50
2019-03-04T07:19:38.293Z,1.50
2019-03-04T07:22:06.652Z,1.30
2019-03-04T07:24:35.013Z,1.80
2019-03-04T07:27:03.272Z,1.90
2019-03-04T07:29:31.525Z,2.17
2019-03-04T07:31:59.835Z,1.80
2019-03-04T07:34:28.073Z,1.73
2019-03-04T07:36:56.326Z,2.40
2019-03-04T07:39:24.591Z,1.70
2019-03-04T07:41:52.870Z,1.60
2019-03-04T07:44:21.221Z,1.90
2019-03-04T07:46:49.481Z,2.43
2019-03-04T07:49:17.755Z,1.50
2019-03-04T07:51:46.018Z,1.60
2019-03-04T07:54:14.948Z,1.90
2019-03-04T07:56:43.198Z,1.80
2019-03-04T07:59:11.483Z,1.60
2019-03-04T08:01:39.739Z,1.43
2019-03-04T08:04:08.018Z,1.40
2019-03-04T08:06:36.272Z,1.40
2019-03-04T08:09:28.542Z,1.83
2019-03-04T08:12:28.799Z,1.30
2019-03-04T08:14:57.076Z,1.53
2019-03-04T08:17:25.363Z,2.50
2019-03-04T08:19:53.782Z,1.30
2019-03-04T08:22:22.049Z,1.70
2019-03-04T08:24:50.319Z,1.40
2019-03-04T08:27:18.600Z,2.13
2019-03-04T08:29:46.971Z,0.90
2019-03-04T08:32:15.231Z,1.00
2019-03-04T08:34:43.486Z,1.73
2019-03-04T08:37:11.759Z,1.07
2019-03-04T08:39:40.030Z,1.13
2019-03-04T08:42:08.297Z,1.13
2019-03-04T08:44:36.556Z,1.20
2019-03-04T08:47:04.825Z,1.30
2019-03-04T08:49:33.088Z,1.43
2019-03-04T08:52:01.346Z,1.43
2019-03-04T08:54:29.959Z,1.33
2019-03-04T09:09:17.204Z,1.23
